createdAt,value
2018-11-05T00:00:42.627Z,96042.08
2018-11-05T00:03:11.110Z,96043.96
2018-11-05T00:05:39.617Z,96038.49
2018-11-05T00:08:08.158Z,96032.91
2018-11-05T00:10:36.716Z,96034.77
2018-11-05T00:13:05.858Z,96030.59
2018-11-05T00:15:34.387Z,96036.17
2018-11-05T00:18:02.923Z,96037.11
2018-11-05T00:20:31.603Z,96037.13
2018-11-05T00:23:00.112Z,96032.56
2018-11-05T00:25:29.227Z,96040.58
2018-11-05T00:27:57.774Z,96036.76
2018-11-05T00:30:26.590Z,96045.91
2018-11-05T00:32:55.110Z,96047.80
2018-11-05T00:35:23.759Z,96040.80
2018-11-05T00:37:52.297Z,96041.86
2018-11-05T00:40:20.799Z,96037.43
2018-11-05T00:42:49.419Z,96043.14
2018-11-05T00:45:17.909Z,96038.26
2018-11-05T00:47:46.397Z,96039.44
2018-11-05T00:50:16.962Z,96037.69
2018-11-05T00:52:45.478Z,96034.30
2018-11-05T00:55:14.433Z,96043.51
2018-11-05T00:57:42.939Z,96046.52
2018-11-05T01:00:14.475Z,96033.84
2018-11-05T01:02:43.265Z,96038.61
2018-11-05T01:05:13.565Z,96035.92
2018-11-05T01:07:42.886Z,96029.66
2018-11-05T01:10:13.422Z,96032.23
2018-11-05T01:12:42.007Z,96029.87
2018-11-05T01:15:12.731Z,96030.57
2018-11-05T01:17:41.234Z,96026.98
2018-11-05T01:20:11.143Z,96026.30
2018-11-05T01:22:39.874Z,96020.70
2018-11-05T01:25:08.410Z,96017.69
2018-11-05T01:27:37.001Z,96009.09
2018-11-05T01:30:07.942Z,96011.75
2018-11-05T01:32:36.491Z,96014.89
2018-11-05T01:35:06.010Z,96012.44
2018-11-05T01:37:34.544Z,96009.90
2018-11-05T01:40:03.110Z,96009.65
2018-11-05T01:42:31.608Z,95998.02
2018-11-05T01:45:00.120Z,95997.09
2018-11-05T01:47:28.609Z,95990.45
2018-11-05T01:49:57.118Z,95983.16
2018-11-05T01:52:26.383Z,95985.92
2018-11-05T01:54:54.879Z,95979.66
2018-11-05T01:57:23.580Z,95984.18
2018-11-05T01:59:52.107Z,95990.47
2018-11-05T02:02:21.444Z,95985.22
2018-11-05T02:04:49.955Z,95977.34
2018-11-05T02:07:18.472Z,95973.14
2018-11-05T02:09:46.994Z,95974.78
2018-11-05T02:12:16.350Z,95974.19
2018-11-05T02:14:44.875Z,95980.36
2018-11-05T02:17:13.514Z,95977.69
2018-11-05T02:19:42.791Z,95977.81
2018-11-05T02:22:11.908Z,95984.77
2018-11-05T02:24:40.394Z,95982.67
2018-11-05T02:27:09.469Z,95974.66
2018-11-05T02:29:37.930Z,95980.24
2018-11-05T02:32:06.425Z,95980.22
2018-11-05T02:34:34.946Z,95980.69
2018-11-05T02:37:03.615Z,95981.38
2018-11-05T02:39:32.214Z,95985.60
2018-11-05T02:42:00.698Z,95982.68
2018-11-05T02:44:29.369Z,95978.61
2018-11-05T02:46:57.887Z,95983.38
2018-11-05T02:49:26.415Z,95975.59
2018-11-05T02:51:54.955Z,95979.44
2018-11-05T02:54:23.921Z,95970.11
2018-11-05T02:56:52.459Z,95970.02
2018-11-05T02:59:20.971Z,95975.23
2018-11-05T03:01:50.361Z,95983.48
2018-11-05T03:04:18.851Z,95980.59
2018-11-05T03:06:47.358Z,95978.38
2018-11-05T03:09:15.855Z,95976.28
2018-11-05T03:11:44.372Z,95978.52
2018-11-05T03:14:12.881Z,95981.86
2018-11-05T03:16:41.386Z,95985.11
2018-11-05T03:19:10.599Z,95986.06
2018-11-05T03:21:39.383Z,95987.69
2018-11-05T03:24:08.459Z,95984.06
2018-11-05T03:26:36.967Z,95992.67
2018-11-05T03:29:05.831Z,95986.87
2018-11-05T03:31:34.771Z,95982.31
2018-11-05T03:34:04.042Z,95985.22
2018-11-05T03:36:32.555Z,95979.65
2018-11-05T03:39:02.335Z,95984.77
2018-11-05T03:41:30.860Z,95973.38
2018-11-05T03:44:02.803Z,95976.75
2018-11-05T03:46:31.331Z,95981.30
2018-11-05T03:49:00.564Z,95977.22
2018-11-05T03:51:29.089Z,95967.91
2018-11-05T03:53:58.010Z,95971.28
2018-11-05T03:56:27.157Z,95965.14
2018-11-05T03:58:55.679Z,95954.53
2018-11-05T04:01:24.226Z,95962.78
2018-11-05T04:03:52.800Z,95966.28
2018-11-05T04:06:21.302Z,95963.25
2018-11-05T04:08:49.827Z,95967.90
2018-11-05T04:11:18.785Z,95961.29
2018-11-05T04:13:47.270Z,95960.12
2018-11-05T04:16:15.747Z,95957.30
2018-11-05T04:18:44.266Z,95961.59
2018-11-05T04:21:13.127Z,95956.40
2018-11-05T04:23:41.622Z,95952.88
2018-11-05T04:26:10.094Z,95954.87
2018-11-05T04:28:38.595Z,95959.39
2018-11-05T04:31:07.155Z,95955.44
2018-11-05T04:33:35.641Z,95952.90
2018-11-05T04:36:04.331Z,95956.62
2018-11-05T04:38:32.831Z,95959.98
2018-11-05T04:41:01.342Z,95957.42
2018-11-05T04:43:29.887Z,95961.13
2018-11-05T04:45:58.387Z,95965.08
2018-11-05T04:48:27.281Z,95961.81
2018-11-05T04:50:55.772Z,95960.79
2018-11-05T04:53:24.266Z,95960.09
2018-11-05T04:55:52.780Z,95964.51
2018-11-05T04:58:21.318Z,95971.60
2018-11-05T05:00:49.837Z,95969.73
2018-11-05T05:03:18.459Z,95968.78
2018-11-05T05:05:46.984Z,95966.56
2018-11-05T05:08:15.485Z,95978.52
2018-11-05T05:10:44.034Z,95976.90
2018-11-05T05:13:12.513Z,95983.98
2018-11-05T05:15:41.034Z,95989.23
2018-11-05T05:21:02.774Z,95992.69
2018-11-05T05:23:31.282Z,95996.90
2018-11-05T05:26:00.023Z,95996.98
2018-11-05T05:28:28.521Z,95997.30
2018-11-05T05:30:57.014Z,96000.06
2018-11-05T05:33:25.524Z,96002.31
2018-11-05T05:35:54.018Z,95997.88
2018-11-05T05:38:23.395Z,95996.71
2018-11-05T05:40:51.940Z,95991.28
2018-11-05T05:43:20.815Z,95996.38
2018-11-05T05:45:49.338Z,95992.55
2018-11-05T05:48:17.822Z,95999.16
2018-11-05T05:50:46.354Z,96001.46
2018-11-05T05:53:14.895Z,95999.36
2018-11-05T05:55:43.492Z,96001.69
2018-11-05T05:58:11.990Z,96005.27
2018-11-05T06:00:40.553Z,96008.22
2018-11-05T06:03:09.068Z,96014.61
2018-11-05T06:05:37.581Z,96012.05
2018-11-05T06:08:06.692Z,96014.72
2018-11-05T06:10:35.181Z,96014.37
2018-11-05T06:13:03.773Z,96015.54
2018-11-05T06:15:32.299Z,96018.30
2018-11-05T06:18:00.858Z,96023.55
2018-11-05T06:20:29.913Z,96023.83
2018-11-05T06:22:58.431Z,96035.92
2018-11-05T06:25:27.058Z,96030.78
2018-11-05T06:27:55.515Z,96034.16
2018-11-05T06:30:24.115Z,96036.13
2018-11-05T06:32:52.783Z,96029.28
2018-11-05T06:35:21.988Z,96021.08
2018-11-05T06:37:50.480Z,96030.22
2018-11-05T06:40:20.250Z,96030.59
2018-11-05T06:42:49.125Z,96024.80
2018-11-05T06:45:19.858Z,96025.39
2018-11-05T06:47:48.651Z,96026.56
2018-11-05T06:50:19.479Z,96026.45
2018-11-05T06:52:48.092Z,96025.05
2018-11-05T06:55:17.006Z,96028.41
2018-11-05T06:57:45.745Z,96025.42
2018-11-05T07:00:19.310Z,96024.73
2018-11-05T07:02:47.837Z,96024.64
2018-11-05T07:05:17.098Z,96019.72
2018-11-05T07:07:45.590Z,96022.05
2018-11-05T07:10:15.168Z,96025.90
2018-11-05T07:12:44.189Z,96022.66
2018-11-05T07:15:16.089Z,96022.30
2018-11-05T07:17:45.570Z,96023.48
2018-11-05T07:20:15.566Z,96032.77
2018-11-05T07:22:44.866Z,96030.25
2018-11-05T07:25:14.277Z,96029.77
2018-11-05T07:27:43.123Z,96036.28
2018-11-05T07:30:16.387Z,96043.30
2018-11-05T07:32:45.282Z,96037.13
2018-11-05T07:35:14.867Z,96039.57
2018-11-05T07:37:44.063Z,96036.31
2018-11-05T07:40:14.230Z,96037.48
2018-11-05T07:42:43.027Z,96036.42
2018-11-05T07:45:14.263Z,96036.17
2018-11-05T07:47:43.735Z,96033.74
2018-11-05T07:50:13.616Z,96036.27
2018-11-05T07:52:42.091Z,96034.49
2018-11-05T07:55:12.778Z,96034.24
2018-11-05T07:57:42.490Z,96037.17
2018-11-05T08:03:04.009Z,96033.14
2018-11-05T08:05:32.478Z,96040.88
2018-11-05T08:08:01.001Z,96031.29
2018-11-05T08:10:29.508Z,96030.94
2018-11-05T08:12:58.107Z,96036.26
2018-11-05T08:15:26.815Z,96032.02
2018-11-05T08:17:55.573Z,96031.39
2018-11-05T08:20:24.169Z,96027.18
2018-11-05T08:22:52.668Z,96026.31
2018-11-05T08:25:21.181Z,96015.27
2018-11-05T08:27:49.950Z,96017.67
2018-11-05T08:30:20.779Z,96020.34
2018-11-05T08:32:49.308Z,96023.30
2018-11-05T08:35:17.858Z,96018.80
2018-11-05T08:37:47.265Z,96023.41
2018-11-05T08:40:19.024Z,96020.49
2018-11-05T08:42:48.467Z,96018.64
2018-11-05T08:45:18.268Z,96015.12
2018-11-05T08:47:47.149Z,96008.80
2018-11-05T08:50:16.985Z,96010.84
2018-11-05T08:52:45.447Z,96013.95
2018-11-05T08:55:15.965Z,96016.31
2018-11-05T08:57:44.720Z,96019.91
2018-11-05T09:00:22.375Z,96024.70
2018-11-05T09:02:51.246Z,96019.56
2018-11-05T09:05:19.927Z,96019.13
2018-11-05T09:07:49.159Z,96027.77
2018-11-05T09:10:17.892Z,96021.63
2018-11-05T09:12:46.275Z,96020.38
2018-11-05T09:15:20.065Z,96020.67
2018-11-05T09:17:48.945Z,96020.31
2018-11-05T09:20:18.329Z,96023.66
2018-11-05T09:22:47.756Z,96012.91
2018-11-05T09:25:16.837Z,96009.04
2018-11-05T09:27:45.356Z,96010.25
2018-11-05T09:30:16.996Z,96017.89
2018-11-05T09:32:46.511Z,96013.25
2018-11-05T09:35:15.163Z,96006.60
2018-11-05T09:37:43.703Z,96009.95
2018-11-05T09:40:16.701Z,96006.52
2018-11-05T09:42:45.923Z,96006.45
2018-11-05T09:45:16.971Z,96001.82
2018-11-05T09:47:46.437Z,95999.95
2018-11-05T09:50:15.350Z,95997.27
2018-11-05T09:52:44.239Z,95996.27
2018-11-05T09:55:13.560Z,95991.55
2018-11-05T09:57:42.402Z,95995.83
2018-11-05T10:00:14.635Z,95985.81
2018-11-05T10:02:48.337Z,95983.73
2018-11-05T10:05:17.344Z,95976.75
2018-11-05T10:07:46.087Z,95978.84
2018-11-05T10:10:15.454Z,95980.27
2018-11-05T10:12:44.195Z,95974.67
2018-11-05T10:15:13.730Z,95976.06
2018-11-05T10:17:42.394Z,95977.19
2018-11-05T10:20:16.238Z,95972.20
2018-11-05T10:22:45.624Z,95964.45
2018-11-05T10:25:14.766Z,95968.02
2018-11-05T10:27:43.161Z,95971.36
2018-11-05T10:30:15.926Z,95969.22
2018-11-05T10:32:45.198Z,95968.30
2018-11-05T10:35:14.448Z,95970.16
2018-11-05T10:37:42.996Z,95971.55
2018-11-05T10:40:14.562Z,95974.13
2018-11-05T10:42:43.954Z,95967.53
2018-11-05T10:45:13.744Z,95965.12
2018-11-05T10:47:42.344Z,95962.52
2018-11-05T10:50:12.315Z,95964.69
2018-11-05T10:52:40.814Z,95960.47
2018-11-05T10:55:09.376Z,95961.13
2018-11-05T10:57:38.094Z,95963.20
2018-11-05T11:00:14.960Z,95956.20
2018-11-05T11:02:46.466Z,95959.45
2018-11-05T11:05:14.992Z,95960.86
2018-11-05T11:07:43.525Z,95956.97
2018-11-05T11:10:12.036Z,95959.49
2018-11-05T11:12:40.822Z,95960.56
2018-11-05T11:15:09.505Z,95955.02
2018-11-05T11:17:38.536Z,95948.51
2018-11-05T11:20:08.623Z,95948.13
2018-11-05T11:22:37.600Z,95942.52
2018-11-05T11:25:07.194Z,95940.81
2018-11-05T11:27:36.661Z,95934.86
2018-11-05T11:30:05.927Z,95931.91
2018-11-05T11:32:34.892Z,95928.55
2018-11-05T11:35:04.004Z,95927.16
2018-11-05T11:37:32.939Z,95928.34
2018-11-05T11:40:01.892Z,95927.73
2018-11-05T11:42:30.816Z,95927.56
2018-11-05T11:45:00.211Z,95922.41
2018-11-05T11:47:29.130Z,95923.86
2018-11-05T11:49:57.951Z,95924.61
2018-11-05T11:52:26.863Z,95924.28
2018-11-05T11:54:55.764Z,95927.00
2018-11-05T11:57:24.714Z,95930.11
2018-11-05T11:59:53.751Z,95927.77
2018-11-05T12:02:22.722Z,95917.74
2018-11-05T12:04:51.842Z,95905.47
2018-11-05T12:07:20.675Z,95906.44
2018-11-05T12:09:49.660Z,95900.63
2018-11-05T12:12:18.599Z,95903.69
2018-11-05T12:14:47.700Z,95895.13
2018-11-05T12:17:16.427Z,95897.68
2018-11-05T12:19:45.259Z,95893.49
2018-11-05T12:22:14.154Z,95894.53
2018-11-05T12:24:42.984Z,95894.39
2018-11-05T12:27:11.870Z,95891.89
2018-11-05T12:29:40.864Z,95892.80
2018-11-05T12:32:09.755Z,95886.89
2018-11-05T12:34:38.691Z,95885.02
2018-11-05T12:37:07.777Z,95889.11
2018-11-05T12:39:36.615Z,95879.98
2018-11-05T12:42:05.868Z,95884.55
2018-11-05T12:44:34.942Z,95880.96
2018-11-05T12:47:04.222Z,95883.98
2018-11-05T12:49:33.043Z,95879.45
2018-11-05T12:52:01.934Z,95878.03
2018-11-05T12:54:30.862Z,95874.44
2018-11-05T12:56:59.646Z,95872.80
2018-11-05T12:59:28.439Z,95867.78
2018-11-05T13:01:58.163Z,95871.79
2018-11-05T13:04:27.071Z,95873.20
2018-11-05T13:06:55.978Z,95874.03
2018-11-05T13:09:24.494Z,95882.59
2018-11-05T13:11:53.022Z,95874.44
2018-11-05T13:14:21.876Z,95874.59
2018-11-05T13:16:50.469Z,95877.97
2018-11-05T13:19:18.987Z,95881.27
2018-11-05T13:21:47.963Z,95877.49
2018-11-05T13:24:16.632Z,95872.73
2018-11-05T13:26:45.052Z,95865.38
2018-11-05T13:29:13.636Z,95875.88
2018-11-05T13:31:42.176Z,95873.80
2018-11-05T13:34:10.675Z,95873.87
2018-11-05T13:36:39.304Z,95874.11
2018-11-05T13:39:09.341Z,95871.05
2018-11-05T13:41:37.903Z,95870.94
2018-11-05T13:44:06.455Z,95876.17
2018-11-05T13:46:35.476Z,95877.50
2018-11-05T13:51:56.300Z,95863.11
2018-11-05T13:54:25.209Z,95867.80
2018-11-05T13:56:53.761Z,95867.07
2018-11-05T13:59:22.266Z,95863.66
2018-11-05T14:01:51.219Z,95866.98
2018-11-05T14:04:19.735Z,95860.53
2018-11-05T14:06:48.263Z,95857.20
2018-11-05T14:09:16.806Z,95858.07
2018-11-05T14:11:45.543Z,95864.04
2018-11-05T14:14:14.067Z,95862.34
2018-11-05T14:16:42.559Z,95869.02
2018-11-05T14:19:11.055Z,95862.45
2018-11-05T14:21:39.574Z,95865.45
2018-11-05T14:24:08.064Z,95873.67
2018-11-05T14:26:36.725Z,95869.26
2018-11-05T14:29:05.731Z,95874.92
2018-11-05T14:31:33.873Z,95870.55
2018-11-05T14:34:04.502Z,95878.84
2018-11-05T14:36:33.066Z,95879.33
2018-11-05T14:39:02.800Z,95878.50
2018-11-05T14:41:31.302Z,95877.31
2018-11-05T14:44:00.165Z,95882.88
2018-11-05T14:46:28.686Z,95890.67
2018-11-05T14:48:57.199Z,95883.75
2018-11-05T14:51:25.914Z,95885.59
2018-11-05T14:53:54.415Z,95887.47
2018-11-05T14:56:22.943Z,95885.91
2018-11-05T14:58:51.459Z,95886.22
2018-11-05T15:01:19.954Z,95886.72
2018-11-05T15:03:49.265Z,95892.27
2018-11-05T15:06:17.782Z,95884.30
2018-11-05T15:08:46.287Z,95884.24
2018-11-05T15:11:14.908Z,95885.67
2018-11-05T15:13:43.528Z,95889.17
2018-11-05T15:16:12.023Z,95885.05
2018-11-05T15:18:40.634Z,95892.48
2018-11-05T15:21:09.172Z,95897.48
2018-11-05T15:23:37.578Z,95886.04
2018-11-05T15:26:06.129Z,95890.52
2018-11-05T15:28:34.610Z,95890.81
2018-11-05T15:31:03.165Z,95888.00
2018-11-05T15:33:43.851Z,95891.72
2018-11-05T15:36:12.316Z,95893.53
2018-11-05T15:38:40.834Z,95892.63
2018-11-05T15:41:09.365Z,95893.27
2018-11-05T15:43:48.008Z,95897.02
2018-11-05T15:46:16.669Z,95894.61
2018-11-05T15:48:45.175Z,95902.77
2018-11-05T15:51:13.792Z,95898.33
2018-11-05T15:53:42.472Z,95889.98
2018-11-05T15:56:10.783Z,95893.38
2018-11-05T15:58:39.314Z,95895.52
2018-11-05T16:01:07.813Z,95899.17
2018-11-05T16:03:36.683Z,95904.29
2018-11-05T16:06:05.179Z,95906.40
2018-11-05T16:08:33.790Z,95913.48
2018-11-05T16:11:02.544Z,95913.23
2018-11-05T16:13:31.054Z,95912.23
2018-11-05T16:15:59.571Z,95905.66
2018-11-05T16:18:28.055Z,95905.52
2018-11-05T16:20:56.612Z,95908.14
2018-11-05T16:23:25.123Z,95914.04
2018-11-05T16:25:53.704Z,95909.29
2018-11-05T16:28:22.158Z,95910.11
2018-11-05T16:30:50.670Z,95904.44
2018-11-05T16:33:19.184Z,95911.30
2018-11-05T16:35:47.730Z,95908.25
2018-11-05T16:38:16.311Z,95909.19
2018-11-05T16:40:44.770Z,95912.05
2018-11-05T16:43:13.266Z,95922.48
2018-11-05T16:45:41.829Z,95930.48
2018-11-05T16:48:10.401Z,95934.34
2018-11-05T16:50:39.008Z,95934.88
2018-11-05T16:53:07.558Z,95922.98
2018-11-05T16:55:36.095Z,95922.52
2018-11-05T16:58:04.714Z,95913.80
2018-11-05T17:00:33.212Z,95907.17
2018-11-05T17:03:01.798Z,95906.92
2018-11-05T17:05:31.102Z,95913.29
2018-11-05T17:07:59.615Z,95919.72
2018-11-05T17:10:28.244Z,95922.33
2018-11-05T17:12:57.626Z,95916.05
2018-11-05T17:15:26.174Z,95915.77
2018-11-05T17:17:54.787Z,95905.48
2018-11-05T17:20:23.390Z,95904.73
2018-11-05T17:22:51.932Z,95909.22
2018-11-05T17:25:20.442Z,95907.16
2018-11-05T17:27:49.076Z,95915.12
2018-11-05T17:30:20.277Z,95926.62
2018-11-05T17:32:48.891Z,95926.95
2018-11-05T17:35:17.712Z,95940.43
2018-11-05T17:37:46.931Z,95933.73
2018-11-05T17:40:16.957Z,95928.81
2018-11-05T17:42:45.418Z,95920.00
2018-11-05T17:45:15.411Z,95918.14
2018-11-05T17:47:44.086Z,95918.92
2018-11-05T17:50:14.771Z,95923.51
2018-11-05T17:52:43.679Z,95921.55
2018-11-05T17:55:13.006Z,95927.77
2018-11-05T17:57:42.699Z,95923.45
2018-11-05T18:00:13.962Z,95919.47
2018-11-05T18:02:42.494Z,95915.45
2018-11-05T18:05:11.102Z,95917.14
2018-11-05T18:07:39.605Z,95921.78
2018-11-05T18:10:08.518Z,95923.29
2018-11-05T18:12:37.115Z,95914.08
2018-11-05T18:15:07.775Z,95917.47
2018-11-05T18:17:36.366Z,95919.84
2018-11-05T18:20:05.330Z,95918.06
2018-11-05T18:22:34.011Z,95924.30
2018-11-05T18:25:02.542Z,95920.17
2018-11-05T18:27:31.081Z,95921.17
2018-11-05T18:29:59.857Z,95926.59
2018-11-05T18:32:28.392Z,95922.84
2018-11-05T18:34:56.912Z,95915.36
2018-11-05T18:37:25.510Z,95918.25
2018-11-05T18:39:54.014Z,95916.17
2018-11-05T18:42:22.524Z,95922.84
2018-11-05T18:44:51.038Z,95928.80
2018-11-05T18:47:19.631Z,95922.91
2018-11-05T18:49:48.112Z,95929.34
2018-11-05T18:52:16.611Z,95923.78
2018-11-05T18:54:45.119Z,95924.66
2018-11-05T18:57:13.790Z,95924.16
2018-11-05T18:59:42.215Z,95921.57
2018-11-05T19:02:15.683Z,95919.92
2018-11-05T19:04:44.186Z,95920.55
2018-11-05T19:07:12.724Z,95918.18
2018-11-05T19:09:41.286Z,95910.90
2018-11-05T19:12:09.804Z,95919.05
2018-11-05T19:14:38.502Z,95914.39
2018-11-05T19:17:07.026Z,95918.05
2018-11-05T19:19:35.534Z,95917.20
2018-11-05T19:22:04.133Z,95923.12
2018-11-05T19:24:32.765Z,95924.09
2018-11-05T19:27:01.195Z,95919.16
2018-11-05T19:29:29.714Z,95916.20
2018-11-05T19:31:58.251Z,95927.26
2018-11-05T19:34:26.798Z,95916.70
2018-11-05T19:36:55.311Z,95914.07
2018-11-05T19:39:23.847Z,95921.97
2018-11-05T19:41:52.436Z,95913.81
2018-11-05T19:44:20.994Z,95912.12
2018-11-05T19:46:49.533Z,95910.84
2018-11-05T19:49:18.109Z,95911.11
2018-11-05T19:51:46.623Z,95907.72
2018-11-05T19:54:15.135Z,95914.41
2018-11-05T19:56:43.661Z,95910.55
2018-11-05T19:59:12.187Z,95909.37
2018-11-05T20:01:40.703Z,95911.38
2018-11-05T20:04:09.522Z,95910.16
2018-11-05T20:06:38.025Z,95906.48
2018-11-05T20:09:07.963Z,95906.88
2018-11-05T20:11:36.554Z,95909.86
2018-11-05T20:14:05.726Z,95906.88
2018-11-05T20:16:35.043Z,95902.86
2018-11-05T20:19:04.976Z,95894.28
2018-11-05T20:21:33.464Z,95907.00
2018-11-05T20:24:03.894Z,95911.05
2018-11-05T20:26:32.406Z,95918.67
2018-11-05T20:29:02.019Z,95913.38
2018-11-05T20:31:30.816Z,95913.88
2018-11-05T20:33:59.525Z,95911.14
2018-11-05T20:36:27.952Z,95905.11
2018-11-05T20:38:56.458Z,95913.40
2018-11-05T20:41:24.954Z,95908.14
2018-11-05T20:43:53.463Z,95910.78
2018-11-05T20:46:22.008Z,95910.38
2018-11-05T20:48:50.490Z,95904.30
2018-11-05T20:51:19.001Z,95910.11
2018-11-05T20:53:47.512Z,95900.09
2018-11-05T20:56:16.042Z,95913.34
2018-11-05T20:58:44.566Z,95914.42
2018-11-05T21:01:13.067Z,95909.42
2018-11-05T21:03:41.790Z,95908.37
2018-11-05T21:06:10.303Z,95901.96
2018-11-05T21:08:38.850Z,95912.57
2018-11-05T21:11:07.378Z,95914.57
2018-11-05T21:13:35.875Z,95915.20
2018-11-05T21:16:04.550Z,95904.81
2018-11-05T21:18:33.503Z,95906.19
2018-11-05T21:21:02.221Z,95907.66
2018-11-05T21:23:30.690Z,95901.30
2018-11-05T21:25:59.202Z,95901.55
2018-11-05T21:28:27.691Z,95893.50
2018-11-05T21:30:56.195Z,95889.66
2018-11-05T21:33:24.719Z,95883.38
2018-11-05T21:35:53.211Z,95888.48
2018-11-05T21:38:21.719Z,95886.17
2018-11-05T21:40:52.482Z,95880.78
2018-11-05T21:43:20.976Z,95877.06
2018-11-05T21:45:49.919Z,95879.19
2018-11-05T21:48:18.431Z,95887.77
2018-11-05T21:50:46.930Z,95885.01
2018-11-05T21:53:15.559Z,95881.62
2018-11-05T21:55:44.147Z,95881.24
2018-11-05T21:58:12.694Z,95882.06
2018-11-05T22:00:41.212Z,95884.47
2018-11-05T22:03:17.903Z,95883.90
2018-11-05T22:05:46.424Z,95875.45
2018-11-05T22:08:14.917Z,95879.30
2018-11-05T22:10:43.420Z,95878.86
2018-11-05T22:13:11.919Z,95879.56
2018-11-05T22:15:43.339Z,95874.19
2018-11-05T22:18:11.862Z,95880.27
2018-11-05T22:20:40.726Z,95876.80
2018-11-05T22:23:09.263Z,95871.18
2018-11-05T22:25:37.837Z,95873.48
2018-11-05T22:28:06.638Z,95872.39
2018-11-05T22:30:35.402Z,95878.42
2018-11-05T22:33:04.060Z,95876.27
2018-11-05T22:35:32.579Z,95878.34
2018-11-05T22:38:01.182Z,95881.94
2018-11-05T22:40:29.656Z,95887.88
2018-11-05T22:42:58.170Z,95886.14
2018-11-05T22:45:27.070Z,95885.44
2018-11-05T22:47:55.571Z,95883.59
2018-11-05T22:50:24.096Z,95888.58
2018-11-05T22:52:52.614Z,95892.66
2018-11-05T22:55:21.118Z,95889.16
2018-11-05T22:57:49.638Z,95892.08
2018-11-05T23:00:23.743Z,95893.94
2018-11-05T23:02:57.450Z,95892.33
2018-11-05T23:05:26.143Z,95895.26
2018-11-05T23:07:55.664Z,95891.64
2018-11-05T23:10:24.239Z,95894.09
2018-11-05T23:12:52.740Z,95886.20
2018-11-05T23:15:21.492Z,95891.31
2018-11-05T23:17:50.553Z,95881.30
2018-11-05T23:20:19.088Z,95892.93
2018-11-05T23:22:47.618Z,95887.81
2018-11-05T23:25:16.153Z,95887.48
2018-11-05T23:27:44.654Z,95893.39
2018-11-05T23:30:13.855Z,95898.38
2018-11-05T23:32:42.415Z,95886.89
2018-11-05T23:35:11.522Z,95894.00
2018-11-05T23:37:41.073Z,95893.29
2018-11-05T23:40:09.941Z,95887.72
2018-11-05T23:42:39.354Z,95884.21
2018-11-05T23:45:10.388Z,95885.27
2018-11-05T23:47:38.905Z,95889.92
2018-11-05T23:50:07.986Z,95894.91
2018-11-05T23:52:36.487Z,95891.30
2018-11-05T23:55:05.506Z,95893.39
2018-11-05T23:57:34.044Z,95885.51
